createdAt,value
2022-12-08T00:04:25.686Z,9.80
2022-12-08T00:10:48.482Z,7.38
2022-12-08T00:16:48.801Z,9.27
2022-12-08T00:22:50.763Z,9.43
2022-12-08T00:28:52.242Z,10.82
2022-12-08T00:34:53.758Z,10.03
2022-12-08T00:40:55.225Z,11.77
2022-12-08T00:46:56.816Z,9.67
2022-12-08T00:52:58.357Z,11.50
2022-12-08T00:59:00.355Z,10.70
2022-12-08T01:05:01.838Z,11.23
2022-12-08T01:11:07.818Z,8.77
2022-12-08T01:17:09.368Z,10.63
2022-12-08T01:23:11.087Z,11.10
2022-12-08T01:29:12.948Z,10.40
2022-12-08T01:35:14.513Z,13.10
2022-12-08T01:41:17.448Z,13.95
2022-12-08T01:47:18.944Z,10.43
2022-12-08T01:53:26.629Z,11.95
2022-12-08T01:59:29.143Z,10.80
2022-12-08T02:05:35.941Z,10.53
2022-12-08T02:11:37.538Z,8.60
2022-12-08T02:17:54.818Z,9.70
2022-12-08T02:24:02.440Z,8.85
2022-12-08T02:30:23.858Z,8.95
2022-12-08T02:36:28.009Z,8.37
2022-12-08T02:42:58.923Z,9.07
2022-12-08T02:49:00.802Z,10.07
2022-12-08T02:55:06.272Z,9.13
2022-12-08T03:01:18.907Z,7.20
2022-12-08T03:07:20.405Z,10.20
2022-12-08T03:13:25.319Z,7.97
2022-12-08T03:19:28.551Z,9.77
2022-12-08T03:25:32.151Z,8.63
2022-12-08T03:31:36.097Z,9.95
2022-12-08T03:37:38.635Z,8.37
2022-12-08T03:43:40.146Z,9.20
2022-12-08T03:49:41.685Z,7.77
2022-12-08T03:55:43.303Z,10.48
2022-12-08T04:01:44.855Z,10.80
2022-12-08T04:07:46.429Z,7.77
2022-12-08T04:13:47.993Z,7.50
2022-12-08T04:19:49.489Z,9.03
2022-12-08T04:25:51.536Z,8.52
2022-12-08T04:31:53.085Z,9.23
2022-12-08T04:37:54.766Z,11.30
2022-12-08T04:43:56.264Z,8.93
2022-12-08T04:49:57.809Z,8.83
2022-12-08T04:55:59.313Z,8.43
2022-12-08T05:02:01.098Z,9.13
2022-12-08T05:08:03.042Z,10.53
2022-12-08T05:14:04.597Z,8.48
2022-12-08T05:20:06.939Z,12.00
2022-12-08T05:26:08.641Z,9.13
2022-12-08T05:32:10.206Z,11.45
2022-12-08T05:38:11.774Z,10.50
2022-12-08T05:44:13.326Z,10.43
2022-12-08T05:50:14.880Z,10.20
2022-12-08T05:56:16.475Z,8.73
2022-12-08T06:02:18.059Z,9.57
2022-12-08T06:08:19.631Z,10.93
2022-12-08T06:14:21.223Z,10.18
2022-12-08T06:20:22.745Z,10.83
2022-12-08T06:26:24.329Z,9.02
2022-12-08T06:32:27.714Z,9.00
2022-12-08T06:38:29.743Z,9.87
2022-12-08T06:44:31.291Z,8.57
2022-12-08T06:50:34.928Z,10.10
2022-12-08T06:56:36.512Z,11.50
2022-12-08T07:02:38.518Z,10.85
2022-12-08T07:08:40.119Z,10.53
2022-12-08T07:14:41.766Z,10.43
2022-12-08T07:20:43.303Z,12.90
2022-12-08T07:26:44.814Z,9.98
2022-12-08T07:32:46.683Z,11.77
2022-12-08T07:38:48.310Z,10.87
2022-12-08T07:44:49.884Z,11.25
2022-12-08T07:50:51.514Z,9.77
2022-12-08T07:56:53.017Z,10.57
2022-12-08T08:02:54.635Z,9.13
2022-12-08T08:08:56.506Z,10.83
2022-12-08T08:14:58.497Z,10.75
2022-12-08T08:21:06.715Z,8.97
2022-12-08T08:27:26.718Z,9.88
2022-12-08T08:33:28.196Z,9.98
2022-12-08T08:39:31.689Z,9.07
2022-12-08T08:45:33.720Z,7.57
2022-12-08T08:51:35.461Z,8.30
2022-12-08T08:57:36.971Z,7.50
2022-12-08T09:03:38.451Z,8.25
2022-12-08T09:09:40.410Z,8.43
2022-12-08T09:15:42.055Z,8.43
2022-12-08T09:21:43.746Z,9.20
2022-12-08T09:27:45.435Z,7.53
2022-12-08T09:33:47.580Z,6.72
2022-12-08T09:39:49.169Z,7.93
2022-12-08T09:45:51.725Z,11.15
2022-12-08T09:51:53.363Z,9.70
2022-12-08T09:58:00.528Z,8.05
2022-12-08T10:04:02.253Z,11.20
2022-12-08T10:10:07.269Z,11.30
2022-12-08T10:16:17.044Z,10.70
2022-12-08T10:22:24.180Z,11.80
2022-12-08T10:28:25.789Z,9.88
2022-12-08T10:34:27.365Z,9.95
2022-12-08T10:40:34.916Z,10.17
2022-12-08T10:46:37.899Z,9.73
2022-12-08T10:52:40.295Z,13.33
2022-12-08T10:58:43.119Z,10.55
2022-12-08T11:04:44.648Z,10.45
2022-12-08T11:10:46.572Z,8.93
2022-12-08T11:16:49.220Z,10.85
2022-12-08T11:22:52.075Z,9.47
2022-12-08T11:28:53.744Z,10.23
2022-12-08T11:35:02.085Z,9.40
2022-12-08T11:41:07.515Z,11.63
2022-12-08T11:47:15.261Z,10.43
2022-12-08T11:53:22.369Z,9.43
2022-12-08T11:59:23.917Z,10.82
2022-12-08T12:05:47.484Z,9.48
2022-12-08T12:12:13.714Z,7.60
2022-12-08T12:18:23.637Z,10.20
2022-12-08T12:24:29.422Z,10.07
2022-12-08T12:30:53.932Z,8.40
2022-12-08T12:36:57.381Z,8.98
2022-12-08T12:42:58.957Z,8.27
2022-12-08T12:49:19.181Z,8.35
2022-12-08T12:55:21.871Z,11.97
2022-12-08T13:01:23.400Z,9.07
2022-12-08T13:07:26.881Z,9.15
2022-12-08T13:13:28.837Z,8.03
2022-12-08T13:19:31.379Z,9.32
2022-12-08T13:25:44.776Z,7.87
2022-12-08T13:31:51.825Z,9.32
2022-12-08T13:37:55.479Z,8.52
2022-12-08T13:45:18.058Z,8.00
2022-12-08T13:57:14.697Z,6.60
2022-12-08T14:03:16.478Z,11.55
2022-12-08T14:09:22.290Z,7.65
2022-12-08T14:15:25.000Z,8.07
2022-12-08T14:21:32.792Z,8.23
2022-12-08T14:27:37.683Z,10.73
2022-12-08T14:33:40.465Z,8.43
2022-12-08T14:39:42.356Z,9.20
2022-12-08T14:45:43.849Z,13.27
2022-12-08T14:51:45.356Z,11.10
2022-12-08T14:57:48.691Z,8.80
2022-12-08T15:03:51.855Z,13.40
2022-12-08T15:10:12.344Z,10.38
2022-12-08T15:16:24.843Z,8.33
2022-12-08T15:22:26.751Z,9.98
2022-12-08T15:28:30.226Z,9.80
2022-12-08T15:34:32.183Z,10.10
2022-12-08T15:40:33.754Z,9.85
2022-12-08T15:46:35.282Z,7.50
2022-12-08T15:52:36.903Z,7.18
2022-12-08T15:58:55.557Z,7.63
2022-12-08T16:05:40.222Z,7.20
2022-12-08T16:12:05.947Z,6.70
2022-12-08T16:18:13.802Z,7.07
2022-12-08T16:24:15.347Z,8.07
2022-12-08T16:30:17.641Z,6.20
2022-12-08T16:36:19.129Z,4.30
2022-12-08T16:42:40.818Z,4.32
2022-12-08T16:48:42.327Z,4.27
2022-12-08T16:54:44.225Z,4.28
2022-12-08T17:00:46.333Z,4.63
2022-12-08T17:06:47.887Z,4.00
2022-12-08T17:12:49.733Z,4.13
2022-12-08T17:18:52.292Z,4.17
2022-12-08T17:24:53.829Z,4.03
2022-12-08T17:30:55.381Z,5.03
2022-12-08T17:36:56.941Z,5.38
2022-12-08T17:42:58.459Z,7.22
2022-12-08T17:48:59.955Z,4.07
2022-12-08T17:55:01.648Z,4.97
2022-12-08T18:01:06.859Z,4.93
2022-12-08T18:07:08.424Z,6.15
2022-12-08T18:13:10.947Z,6.82
2022-12-08T18:19:13.116Z,6.60
2022-12-08T18:25:14.682Z,6.05
2022-12-08T18:31:17.659Z,5.17
2022-12-08T18:37:19.362Z,5.80
2022-12-08T18:43:20.858Z,7.63
2022-12-08T18:49:22.356Z,7.17
2022-12-08T18:55:23.862Z,6.85
2022-12-08T19:01:25.904Z,7.23
2022-12-08T19:07:27.595Z,9.13
2022-12-08T19:13:29.219Z,7.53
2022-12-08T19:19:30.814Z,10.77
2022-12-08T19:25:32.380Z,11.48
2022-12-08T19:31:34.317Z,10.60
2022-12-08T19:37:36.093Z,10.90
2022-12-08T19:43:56.456Z,10.80
2022-12-08T19:50:17.979Z,10.37
2022-12-08T19:56:19.514Z,10.98
2022-12-08T20:02:21.135Z,10.57
2022-12-08T20:08:22.872Z,10.65
2022-12-08T20:14:25.318Z,11.55
2022-12-08T20:20:27.437Z,9.07
2022-12-08T20:26:29.029Z,10.25
2022-12-08T20:32:30.620Z,12.43
2022-12-08T20:38:32.207Z,9.95
2022-12-08T20:44:33.789Z,8.95
2022-12-08T20:50:35.356Z,10.03
2022-12-08T20:56:37.122Z,10.35
2022-12-08T21:02:45.100Z,13.27
2022-12-08T21:08:50.234Z,9.93
2022-12-08T21:14:52.110Z,10.27
2022-12-08T21:21:00.606Z,10.07
2022-12-08T21:27:02.238Z,11.55
2022-12-08T21:33:03.961Z,10.60
2022-12-08T21:39:11.683Z,11.57
2022-12-08T21:45:17.802Z,10.98
2022-12-08T21:51:19.425Z,11.80
2022-12-08T21:57:21.006Z,11.55
2022-12-08T22:03:22.683Z,15.37
2022-12-08T22:09:24.653Z,11.75
2022-12-08T22:15:29.791Z,12.52
2022-12-08T22:21:31.607Z,10.07
2022-12-08T22:27:34.219Z,11.00
2022-12-08T22:33:36.417Z,13.87
2022-12-08T22:39:38.101Z,10.80
2022-12-08T22:45:39.782Z,12.85
2022-12-08T22:51:41.680Z,12.23
2022-12-08T22:57:43.244Z,9.40
2022-12-08T23:03:44.878Z,16.20
2022-12-08T23:09:46.724Z,13.60
2022-12-08T23:15:48.269Z,14.25
2022-12-08T23:21:49.777Z,16.77
2022-12-08T23:27:51.684Z,15.77
2022-12-08T23:33:53.358Z,15.57
2022-12-08T23:39:55.231Z,19.08
2022-12-08T23:45:57.016Z,15.18
2022-12-08T23:51:58.899Z,13.80
2022-12-08T23:58:00.520Z,12.95
